Terminal Aerodrome Forecast
Issued by NWS

Home | Current Version | Previous Version | Text Only | Print | Product List | Glossary On
Versions: 1 2 3 4 5 6 7 8 9 10 11 12 13 14 15 16 17 18 19 20 21
000
FTUS42 KFFC 031725
TAFPDK
TAF
KPDK 031725Z 0318/0418 10007KT P6SM VCSH BKN029 BKN040
      TEMPO 0319/0322 VRB15G25KT 5SM TSRA BKN045CB
     FM040000 09005KT P6SM SCT150
     FM040600 09006KT P6SM SCT025
     FM041000 08006KT P6SM SCT008 BKN015
     FM041500 08006KT P6SM BKN040=

USA.gov is the U.S. government's official web portal to all federal, state and local government web resources and services.